Time,TemperatureF,DewpointF,PressureIn,WindDirection,WindDirectionDegrees,WindSpeedMPH,WindSpeedGustMPH,Humidity,HourlyPrecipIn,Conditions,Clouds,dailyrainin,SoftwareType,DateUTC
2013-08-25 00:03:00,68.0,51.0,29.86,North,0,3.0,9.0,55,0.00,,,0.00,,2013-08-25 05:03:00,
2013-08-25 00:12:00,68.0,51.0,29.86,North,0,3.0,9.0,55,0.00,,,0.00,,2013-08-25 05:12:00,
2013-08-25 00:23:00,67.0,51.0,29.88,NNE,24,3.0,9.0,57,0.00,,,0.00,,2013-08-25 05:23:00,
2013-08-25 00:34:00,67.0,51.0,29.88,NNE,24,3.0,9.0,57,0.00,,,0.00,,2013-08-25 05:34:00,
2013-08-25 00:42:00,67.0,51.0,29.88,NNE,24,3.0,9.0,57,0.00,,,0.00,,2013-08-25 05:42:00,
2013-08-25 00:52:00,66.0,51.0,29.87,NNE,20,0.0,6.0,59,0.00,,,0.00,,2013-08-25 05:52:00,
2013-08-25 01:03:00,66.0,51.0,29.87,NNE,20,0.0,6.0,59,0.00,,,0.00,,2013-08-25 06:03:00,
2013-08-25 01:12:00,66.0,51.0,29.87,NNE,20,0.0,6.0,59,0.00,,,0.00,,2013-08-25 06:12:00,
2013-08-25 01:22:00,64.0,52.0,29.88,NNE,27,0.0,3.0,65,0.00,,,0.00,,2013-08-25 06:22:00,
2013-08-25 01:32:00,64.0,52.0,29.88,NNE,27,0.0,3.0,65,0.00,,,0.00,,2013-08-25 06:32:00,
2013-08-25 01:43:00,64.0,52.0,29.88,NNE,27,0.0,3.0,65,0.00,,,0.00,,2013-08-25 06:43:00,
2013-08-25 01:52:00,59.0,51.0,29.91,NNE,27,0.0,1.0,75,0.00,,,0.00,,2013-08-25 06:52:00,
2013-08-25 02:01:00,59.0,51.0,29.91,NNE,27,0.0,1.0,75,0.00,,,0.00,,2013-08-25 07:01:00,
2013-08-25 02:12:00,59.0,51.0,29.91,NNE,27,0.0,1.0,75,0.00,,,0.00,,2013-08-25 07:12:00,
2013-08-25 02:42:00,57.0,51.0,29.91,NNE,27,0.0,2.0,80,0.00,,,0.00,,2013-08-25 07:42:00,
2013-08-25 03:12:00,56.0,52.0,29.92,NNE,27,2.0,3.0,85,0.00,,,0.00,,2013-08-25 08:12:00,
2013-08-25 03:42:00,55.0,51.0,29.92,NNE,27,0.0,2.0,86,0.00,,,0.00,,2013-08-25 08:42:00,
2013-08-25 04:11:00,55.0,52.0,29.92,North,8,2.0,6.0,88,0.00,,,0.00,,2013-08-25 09:11:00,
2013-08-25 04:44:00,55.0,52.0,29.91,North,8,0.0,3.0,88,0.00,,,0.00,,2013-08-25 09:44:00,
2013-08-25 05:12:00,54.0,51.0,29.91,North,8,1.0,3.0,89,0.00,,,0.00,,2013-08-25 10:12:00,
2013-08-25 05:42:00,53.0,50.0,29.93,North,8,0.0,2.0,90,0.00,,,0.00,,2013-08-25 10:42:00,
2013-08-25 06:12:00,53.0,50.0,29.95,North,8,0.0,3.0,91,0.00,,,0.00,,2013-08-25 11:12:00,
2013-08-25 06:42:00,53.0,51.0,29.96,North,8,0.0,3.0,92,0.00,,,0.00,,2013-08-25 11:42:00,
2013-08-25 07:12:00,52.0,50.0,29.96,North,8,0.0,3.0,92,0.00,,,0.00,,2013-08-25 12:12:00,
2013-08-25 07:43:00,52.0,50.0,29.97,North,8,0.0,0.0,93,0.00,,,0.00,,2013-08-25 12:43:00,
2013-08-25 08:12:00,51.0,49.0,30.01,North,8,0.0,2.0,94,0.00,,,0.00,,2013-08-25 13:12:00,
2013-08-25 08:42:00,52.0,51.0,30.01,North,8,0.0,1.0,95,0.00,,,0.00,,2013-08-25 13:42:00,
2013-08-25 08:52:00,62.0,57.0,29.95,ENE,62,2.0,10.0,84,0.00,,,0.00,,2013-08-25 13:52:00,
2013-08-25 09:02:00,62.0,57.0,29.95,ENE,62,2.0,10.0,84,0.00,,,0.00,,2013-08-25 14:02:00,
2013-08-25 09:11:00,62.0,57.0,29.95,ENE,62,2.0,10.0,84,0.00,,,0.00,,2013-08-25 14:11:00,
2013-08-25 09:25:00,68.0,55.0,29.92,SE,124,3.0,13.0,63,0.00,,,0.00,,2013-08-25 14:25:00,
2013-08-25 09:32:00,68.0,55.0,29.92,SE,124,3.0,13.0,63,0.00,,,0.00,,2013-08-25 14:32:00,
2013-08-25 09:52:00,70.0,55.0,29.92,ESE,116,2.0,14.0,58,0.00,,,0.00,,2013-08-25 14:52:00,
2013-08-25 10:01:00,70.0,55.0,29.92,ESE,116,2.0,14.0,58,0.00,,,0.00,,2013-08-25 15:01:00,
2013-08-25 10:11:00,70.0,55.0,29.92,ESE,116,2.0,14.0,58,0.00,,,0.00,,2013-08-25 15:11:00,
2013-08-25 10:23:00,72.0,55.0,29.91,West,268,2.0,12.0,56,0.00,,,0.00,,2013-08-25 15:23:00,
2013-08-25 10:35:00,72.0,55.0,29.91,West,268,2.0,12.0,56,0.00,,,0.00,,2013-08-25 15:35:00,
2013-08-25 10:44:00,72.0,55.0,29.91,West,268,2.0,12.0,56,0.00,,,0.00,,2013-08-25 15:44:00,
2013-08-25 10:55:00,72.0,55.0,29.91,West,268,2.0,12.0,56,0.00,,,0.00,,2013-08-25 15:55:00,
2013-08-25 11:14:00,73.0,55.0,29.93,SE,131,4.0,14.0,53,0.00,,,0.00,,2013-08-25 16:14:00,
2013-08-25 11:24:00,73.0,55.0,29.93,SE,131,4.0,14.0,53,0.00,,,0.00,,2013-08-25 16:24:00,
2013-08-25 11:44:00,73.0,55.0,29.94,East,90,3.0,14.0,54,0.00,,,0.00,,2013-08-25 16:44:00,
2013-08-25 11:54:00,73.0,55.0,29.94,East,90,3.0,14.0,54,0.00,,,0.00,,2013-08-25 16:54:00,
2013-08-25 12:11:00,74.0,56.0,29.94,South,181,3.0,17.0,53,0.00,,,0.00,,2013-08-25 17:11:00,
2013-08-25 12:22:00,74.0,56.0,29.94,South,181,3.0,17.0,53,0.00,,,0.00,,2013-08-25 17:22:00,
2013-08-25 12:43:00,75.0,55.0,29.93,South,172,4.0,16.0,49,0.00,,,0.00,,2013-08-25 17:43:00,
2013-08-25 12:53:00,75.0,55.0,29.93,South,172,4.0,16.0,49,0.00,,,0.00,,2013-08-25 17:53:00,
2013-08-25 13:12:00,76.0,54.0,29.96,SSE,158,4.0,13.0,47,0.00,,,0.00,,2013-08-25 18:12:00,
2013-08-25 13:22:00,76.0,54.0,29.96,SSE,158,4.0,13.0,47,0.00,,,0.00,,2013-08-25 18:22:00,
2013-08-25 13:43:00,76.0,54.0,29.95,South,188,6.0,18.0,46,0.00,,,0.00,,2013-08-25 18:43:00,
2013-08-25 13:52:00,76.0,54.0,29.95,South,188,6.0,18.0,46,0.00,,,0.00,,2013-08-25 18:52:00,
2013-08-25 14:11:00,77.0,55.0,29.96,ENE,71,3.0,13.0,46,0.00,,,0.00,,2013-08-25 19:11:00,
2013-08-25 14:22:00,77.0,55.0,29.96,ENE,71,3.0,13.0,46,0.00,,,0.00,,2013-08-25 19:22:00,
2013-08-25 14:42:00,75.0,53.0,29.96,SSE,160,6.0,13.0,46,0.00,,,0.00,,2013-08-25 19:42:00,
2013-08-25 14:53:00,75.0,53.0,29.96,SSE,160,6.0,13.0,46,0.00,,,0.00,,2013-08-25 19:53:00,
2013-08-25 15:12:00,76.0,54.0,29.96,South,172,3.0,12.0,46,0.00,,,0.00,,2013-08-25 20:12:00,
2013-08-25 15:23:00,76.0,54.0,29.96,South,172,3.0,12.0,46,0.00,,,0.00,,2013-08-25 20:23:00,
2013-08-25 15:43:00,76.0,53.0,29.96,East,100,6.0,12.0,45,0.00,,,0.00,,2013-08-25 20:43:00,
2013-08-25 15:53:00,76.0,53.0,29.96,East,100,6.0,12.0,45,0.00,,,0.00,,2013-08-25 20:53:00,
2013-08-25 16:12:00,78.0,54.0,29.93,East,96,4.0,16.0,43,0.00,,,0.00,,2013-08-25 21:12:00,
2013-08-25 16:22:00,78.0,54.0,29.93,East,96,4.0,16.0,43,0.00,,,0.00,,2013-08-25 21:22:00,
2013-08-25 16:43:00,77.0,53.0,29.94,ENE,72,2.0,12.0,44,0.00,,,0.00,,2013-08-25 21:43:00,
2013-08-25 16:55:00,77.0,53.0,29.94,ENE,72,2.0,12.0,44,0.00,,,0.00,,2013-08-25 21:55:00,
2013-08-25 17:14:00,75.0,55.0,29.95,East,86,3.0,13.0,49,0.00,,,0.00,,2013-08-25 22:14:00,
2013-08-25 17:24:00,75.0,55.0,29.95,East,86,3.0,13.0,49,0.00,,,0.00,,2013-08-25 22:24:00,
2013-08-25 17:43:00,75.0,53.0,29.95,ESE,105,3.0,13.0,47,0.00,,,0.00,,2013-08-25 22:43:00,
2013-08-25 17:53:00,75.0,53.0,29.95,ESE,105,3.0,13.0,47,0.00,,,0.00,,2013-08-25 22:53:00,
2013-08-25 18:12:00,74.0,54.0,29.96,ESE,121,4.0,14.0,49,0.00,,,0.00,,2013-08-25 23:12:00,
2013-08-25 18:23:00,74.0,54.0,29.96,ESE,121,4.0,14.0,49,0.00,,,0.00,,2013-08-25 23:23:00,
2013-08-25 18:43:00,74.0,54.0,29.95,ENE,76,3.0,12.0,50,0.00,,,0.00,,2013-08-25 23:43:00,
2013-08-25 18:53:00,74.0,54.0,29.95,ENE,76,3.0,12.0,50,0.00,,,0.00,,2013-08-25 23:53:00,
2013-08-25 19:11:00,73.0,54.0,29.96,East,80,0.0,7.0,51,0.00,,,0.00,,2013-08-26 00:11:00,
2013-08-25 19:22:00,73.0,54.0,29.96,East,80,0.0,7.0,51,0.00,,,0.00,,2013-08-26 00:22:00,
2013-08-25 19:42:00,74.0,54.0,29.94,East,99,3.0,8.0,50,0.00,,,0.00,,2013-08-26 00:42:00,
2013-08-25 19:52:00,74.0,54.0,29.94,East,99,3.0,8.0,50,0.00,,,0.00,,2013-08-26 00:52:00,
2013-08-25 20:11:00,74.0,54.0,29.91,ESE,119,4.0,9.0,50,0.00,,,0.00,,2013-08-26 01:11:00,
2013-08-25 20:22:00,74.0,54.0,29.91,ESE,119,4.0,9.0,50,0.00,,,0.00,,2013-08-26 01:22:00,
2013-08-25 20:32:00,74.0,54.0,29.91,ESE,119,4.0,9.0,50,0.00,,,0.00,,2013-08-26 01:32:00,
2013-08-25 23:53:00,68.0,52.0,29.89,NE,51,3.0,10.0,57,0.00,,,0.00,,2013-08-26 04:53:00,